createdAt,value
2023-03-14T00:00:29.238Z,42.22
2023-03-14T00:01:29.212Z,40.77
2023-03-14T00:02:29.254Z,54.79
2023-03-14T00:03:29.282Z,53.66
2023-03-14T00:04:29.204Z,48.02
2023-03-14T00:05:29.194Z,47.86
2023-03-14T00:06:29.171Z,51.88
2023-03-14T00:07:29.175Z,46.89
2023-03-14T00:08:29.158Z,47.86
2023-03-14T00:09:29.151Z,52.69
2023-03-14T00:10:29.144Z,44.96
2023-03-14T00:11:29.142Z,48.66
2023-03-14T00:12:29.124Z,43.99
2023-03-14T00:13:29.120Z,43.02
2023-03-14T00:14:29.166Z,47.70
2023-03-14T00:15:29.096Z,45.28
2023-03-14T00:16:29.129Z,42.54
2023-03-14T00:17:29.102Z,43.02
2023-03-14T00:18:29.063Z,43.83
2023-03-14T00:19:29.077Z,43.67
2023-03-14T00:20:29.051Z,45.92
2023-03-14T00:21:29.056Z,43.51
2023-03-14T00:22:29.038Z,44.15
2023-03-14T00:25:18.571Z,44.96
2023-03-14T00:26:18.583Z,45.60
2023-03-14T00:27:18.573Z,44.63
2023-03-14T00:28:19.434Z,49.31
2023-03-14T00:29:18.540Z,44.15
2023-03-14T00:30:18.530Z,41.89
2023-03-14T00:31:18.613Z,41.73
2023-03-14T00:32:18.585Z,51.40
2023-03-14T00:33:19.447Z,55.11
2023-03-14T00:34:18.507Z,42.22
2023-03-14T00:35:18.502Z,43.02
2023-03-14T00:36:18.482Z,46.25
2023-03-14T00:37:18.472Z,45.12
2023-03-14T00:38:18.461Z,43.83
2023-03-14T00:39:18.458Z,43.83
2023-03-14T00:40:18.453Z,53.33
2023-03-14T00:41:19.555Z,45.28
2023-03-14T00:42:19.529Z,50.92
2023-03-14T00:43:19.521Z,41.89
2023-03-14T00:44:19.559Z,39.64
2023-03-14T00:45:19.500Z,44.15
2023-03-14T00:46:19.576Z,42.22
2023-03-14T00:47:19.520Z,46.08
2023-03-14T00:48:19.510Z,39.96
2023-03-14T00:49:19.478Z,40.93
2023-03-14T00:50:19.472Z,41.57
2023-03-14T00:51:19.477Z,43.02
2023-03-14T00:52:19.443Z,47.37
2023-03-14T00:53:19.449Z,41.09
2023-03-14T00:54:19.440Z,41.57
2023-03-14T00:55:19.440Z,49.31
2023-03-14T00:56:20.056Z,41.73
2023-03-14T00:57:19.415Z,40.93
2023-03-14T00:58:19.406Z,41.25
2023-03-14T00:59:19.396Z,42.06
2023-03-14T01:00:19.396Z,45.92
2023-03-14T01:01:19.398Z,41.25
2023-03-14T01:02:19.382Z,50.11
2023-03-14T01:03:19.359Z,44.47
2023-03-14T01:04:19.359Z,46.08
2023-03-14T01:05:19.352Z,45.12
2023-03-14T01:06:19.352Z,41.89
2023-03-14T01:07:19.349Z,41.41
2023-03-14T01:08:19.318Z,42.22
2023-03-14T01:09:19.326Z,42.54
2023-03-14T01:10:19.305Z,49.31
2023-03-14T01:11:19.315Z,40.77
2023-03-14T01:12:19.296Z,42.22
2023-03-14T01:13:20.041Z,43.67
2023-03-14T01:14:19.278Z,46.08
2023-03-14T01:15:19.293Z,48.50
2023-03-14T01:16:19.302Z,45.60
2023-03-14T01:17:19.277Z,45.60
2023-03-14T01:18:19.948Z,44.63
2023-03-14T01:19:19.952Z,42.22
2023-03-14T01:20:19.234Z,40.93
2023-03-14T01:21:19.248Z,41.09
2023-03-14T01:22:19.223Z,46.57
2023-03-14T01:23:19.221Z,41.57
2023-03-14T01:24:19.213Z,42.06
2023-03-14T01:25:19.203Z,40.61
2023-03-14T01:26:19.195Z,39.96
2023-03-14T01:27:19.187Z,43.67
2023-03-14T01:28:20.031Z,41.89
2023-03-14T01:29:20.163Z,43.83
2023-03-14T01:30:19.985Z,41.57
2023-03-14T01:31:19.198Z,48.82
2023-03-14T01:32:19.152Z,46.73
2023-03-14T01:33:19.140Z,44.96
2023-03-14T01:34:19.130Z,43.99
2023-03-14T01:35:19.118Z,50.27
2023-03-14T01:36:19.109Z,40.44
2023-03-14T01:37:19.131Z,41.09
2023-03-14T01:38:19.098Z,40.93
2023-03-14T01:39:19.114Z,41.25
2023-03-14T01:40:19.078Z,42.22
2023-03-14T01:41:19.076Z,41.73
2023-03-14T01:42:19.065Z,41.89
2023-03-14T01:43:19.054Z,50.27
2023-03-14T01:44:19.061Z,42.70
2023-03-14T01:45:19.044Z,42.22
2023-03-14T01:46:19.136Z,45.44
2023-03-14T01:47:19.028Z,45.44
2023-03-14T01:48:19.009Z,42.86
2023-03-14T01:49:18.994Z,43.02
2023-03-14T01:50:19.003Z,45.44
2023-03-14T01:51:18.999Z,42.38
2023-03-14T01:52:18.981Z,46.73
2023-03-14T01:53:18.960Z,39.64
2023-03-14T01:54:18.977Z,41.09
2023-03-14T01:55:18.970Z,52.69
2023-03-14T01:56:18.945Z,51.40
2023-03-14T01:57:18.939Z,41.41
2023-03-14T01:58:18.932Z,44.15
2023-03-14T01:59:18.923Z,48.98
2023-03-14T02:00:18.916Z,40.28
2023-03-14T02:01:18.941Z,39.16
2023-03-14T02:02:18.894Z,41.41
2023-03-14T02:03:18.945Z,41.57
2023-03-14T02:04:18.877Z,41.41
2023-03-14T02:05:18.871Z,47.70
2023-03-14T02:06:18.870Z,43.02
2023-03-14T02:07:18.842Z,45.44
2023-03-14T02:08:18.850Z,40.77
2023-03-14T02:09:18.861Z,41.25
2023-03-14T02:10:18.823Z,43.02
2023-03-14T02:11:18.817Z,41.73
2023-03-14T02:12:18.803Z,44.31
2023-03-14T02:13:18.830Z,42.86
2023-03-14T02:14:18.817Z,41.73
2023-03-14T02:15:18.792Z,42.54
2023-03-14T02:16:18.803Z,49.95
2023-03-14T02:17:18.763Z,52.37
2023-03-14T02:18:18.752Z,40.28
2023-03-14T02:19:18.759Z,40.44
2023-03-14T02:20:18.744Z,44.79
2023-03-14T02:21:18.749Z,43.83
2023-03-14T02:22:18.775Z,43.51
2023-03-14T02:23:18.717Z,43.34
2023-03-14T02:24:18.738Z,49.47
2023-03-14T02:25:18.691Z,43.83
2023-03-14T02:26:18.704Z,42.06
2023-03-14T02:27:18.689Z,42.22
2023-03-14T02:28:18.685Z,48.66
2023-03-14T02:29:18.689Z,46.57
2023-03-14T02:30:18.686Z,41.73
2023-03-14T02:31:18.683Z,45.12
2023-03-14T02:32:18.664Z,42.54
2023-03-14T02:33:20.013Z,43.18
2023-03-14T02:34:19.627Z,42.38
2023-03-14T02:35:19.057Z,43.02
2023-03-14T02:36:18.612Z,41.57
2023-03-14T02:37:18.620Z,42.38
2023-03-14T02:38:18.603Z,41.73
2023-03-14T02:39:19.470Z,43.67
2023-03-14T02:40:18.599Z,45.12
2023-03-14T02:41:18.565Z,48.02
2023-03-14T02:42:18.576Z,46.41
2023-03-14T02:43:18.561Z,45.60
2023-03-14T02:44:18.584Z,52.05
2023-03-14T02:45:18.548Z,46.57
2023-03-14T02:46:18.565Z,43.67
2023-03-14T02:47:18.532Z,41.09
2023-03-14T02:48:18.524Z,43.67
2023-03-14T02:49:18.519Z,43.18
2023-03-14T02:50:18.518Z,47.70
2023-03-14T02:51:18.488Z,43.99
2023-03-14T02:52:18.501Z,42.38
2023-03-14T02:53:18.485Z,42.86
2023-03-14T02:54:18.475Z,45.12
2023-03-14T02:55:18.458Z,44.31
2023-03-14T02:56:18.448Z,44.47
2023-03-14T02:57:18.466Z,47.05
2023-03-14T02:58:18.464Z,43.34
2023-03-14T02:59:18.438Z,43.02
2023-03-14T03:00:18.407Z,45.28
2023-03-14T03:01:18.469Z,41.25
2023-03-14T03:02:18.412Z,41.73
2023-03-14T03:03:18.442Z,45.60
2023-03-14T03:04:18.393Z,45.28
2023-03-14T03:05:18.373Z,44.96
2023-03-14T03:06:18.371Z,46.89
2023-03-14T03:07:18.370Z,46.08
2023-03-14T03:08:18.369Z,48.18
2023-03-14T03:09:18.352Z,47.05
2023-03-14T03:10:18.334Z,42.06
2023-03-14T03:11:18.335Z,41.89
2023-03-14T03:12:19.070Z,43.18
2023-03-14T03:13:18.318Z,43.83
2023-03-14T03:14:18.304Z,43.34
2023-03-14T03:15:18.302Z,50.92
2023-03-14T03:16:18.313Z,41.25
2023-03-14T03:17:18.276Z,42.22
2023-03-14T03:18:18.308Z,43.67
2023-03-14T03:19:18.256Z,39.64
2023-03-14T03:20:18.275Z,41.73
2023-03-14T03:21:18.251Z,41.89
2023-03-14T03:22:18.260Z,45.44
2023-03-14T03:23:18.252Z,42.70
2023-03-14T03:24:18.221Z,42.54
2023-03-14T03:25:18.243Z,43.99
2023-03-14T03:26:18.205Z,44.15
2023-03-14T03:27:18.206Z,43.51
2023-03-14T03:28:18.242Z,45.60
2023-03-14T03:29:18.208Z,51.40
2023-03-14T03:30:18.183Z,43.83
2023-03-14T03:31:18.231Z,49.31
2023-03-14T03:32:18.183Z,43.18
2023-03-14T03:33:18.193Z,46.08
2023-03-14T03:34:18.159Z,43.18
2023-03-14T03:35:18.145Z,42.38
2023-03-14T03:36:18.161Z,42.54
2023-03-14T03:37:18.123Z,53.33
2023-03-14T03:38:19.068Z,46.25
2023-03-14T03:39:18.115Z,43.99
2023-03-14T03:40:18.123Z,50.92
2023-03-14T03:41:18.098Z,43.51
2023-03-14T03:42:18.100Z,47.21
2023-03-14T03:43:18.086Z,44.96
2023-03-14T03:44:18.094Z,44.96
2023-03-14T03:45:18.076Z,48.66
2023-03-14T03:46:18.104Z,53.17
2023-03-14T03:47:18.068Z,49.31
2023-03-14T03:48:18.043Z,50.76
2023-03-14T03:49:18.049Z,49.15
2023-03-14T03:50:18.024Z,50.27
2023-03-14T03:51:18.039Z,51.88
2023-03-14T03:52:18.010Z,50.60
2023-03-14T03:53:32.293Z,50.11
2023-03-14T03:54:20.033Z,52.69
2023-03-14T03:55:17.987Z,51.40
2023-03-14T03:56:18.015Z,51.40
2023-03-14T03:57:17.975Z,55.27
2023-03-14T03:58:17.961Z,50.92
2023-03-14T03:59:17.954Z,55.11
2023-03-14T04:00:17.971Z,50.76
2023-03-14T04:01:17.946Z,52.69
2023-03-14T04:02:18.547Z,51.40
2023-03-14T04:03:17.930Z,47.70
2023-03-14T04:04:17.972Z,53.01
2023-03-14T04:05:17.917Z,51.88
2023-03-14T04:06:18.924Z,48.82
2023-03-14T04:07:17.891Z,49.31
2023-03-14T04:08:17.904Z,48.18
2023-03-14T04:09:17.899Z,48.66
2023-03-14T04:10:17.887Z,48.18
2023-03-14T04:11:18.298Z,55.43
2023-03-14T04:12:18.850Z,53.98
2023-03-14T04:13:17.836Z,52.37
2023-03-14T04:14:17.828Z,53.98
2023-03-14T04:15:17.849Z,58.33
2023-03-14T04:16:17.865Z,52.21
2023-03-14T04:17:17.818Z,59.14
2023-03-14T04:18:17.805Z,57.52
2023-03-14T04:19:17.799Z,54.46
2023-03-14T04:20:17.793Z,50.92
2023-03-14T04:21:17.776Z,50.92
2023-03-14T04:22:17.777Z,53.33
2023-03-14T04:23:17.781Z,55.27
2023-03-14T04:24:17.750Z,54.46
2023-03-14T04:25:17.842Z,50.43
2023-03-14T04:26:17.736Z,49.63
2023-03-14T04:27:17.750Z,47.70
2023-03-14T04:28:17.719Z,47.21
2023-03-14T04:29:17.711Z,53.01
2023-03-14T04:30:18.598Z,54.95
2023-03-14T04:31:17.794Z,56.88
2023-03-14T04:32:17.681Z,54.95
2023-03-14T04:33:17.674Z,52.69
2023-03-14T04:34:17.669Z,55.91
2023-03-14T04:35:17.659Z,54.95
2023-03-14T04:36:18.103Z,56.56
2023-03-14T04:37:17.653Z,57.04
2023-03-14T04:38:17.633Z,59.46
2023-03-14T04:39:17.628Z,60.10
2023-03-14T04:40:18.828Z,55.91
2023-03-14T04:41:18.615Z,52.69
2023-03-14T04:42:17.613Z,57.52
2023-03-14T04:43:17.597Z,54.79
2023-03-14T04:44:17.608Z,57.20
2023-03-14T04:45:17.576Z,57.52
2023-03-14T04:46:17.649Z,52.05
2023-03-14T04:47:17.564Z,51.24
2023-03-14T04:48:17.561Z,54.95
2023-03-14T04:49:17.556Z,54.95
2023-03-14T04:50:17.540Z,58.81
2023-03-14T04:51:17.556Z,60.59
2023-03-14T04:52:17.549Z,50.11
2023-03-14T04:53:17.526Z,55.43
2023-03-14T04:54:17.526Z,53.82
2023-03-14T04:55:18.011Z,56.24
2023-03-14T04:56:17.498Z,56.56
2023-03-14T04:57:17.505Z,55.59
2023-03-14T04:58:17.511Z,54.62
2023-03-14T04:59:17.514Z,56.24
2023-03-14T05:00:17.457Z,61.55
2023-03-14T05:01:17.452Z,54.30
2023-03-14T05:02:18.962Z,57.52
2023-03-14T05:03:18.185Z,59.78
2023-03-14T05:04:17.434Z,54.46
2023-03-14T05:05:17.417Z,57.20
2023-03-14T05:06:17.393Z,59.78
2023-03-14T05:07:18.416Z,56.40
2023-03-14T05:08:17.402Z,50.27
2023-03-14T05:09:17.394Z,51.88
2023-03-14T05:10:17.385Z,56.72
2023-03-14T05:11:17.375Z,54.79
2023-03-14T05:12:17.359Z,56.07
2023-03-14T05:13:17.358Z,59.14
2023-03-14T05:14:17.367Z,57.52
2023-03-14T05:15:17.345Z,56.24
2023-03-14T05:16:17.396Z,54.95
2023-03-14T05:17:17.307Z,52.21
2023-03-14T05:18:17.315Z,57.85
2023-03-14T05:19:17.297Z,61.07
2023-03-14T05:20:17.306Z,58.49
2023-03-14T05:21:17.303Z,57.85
2023-03-14T05:22:17.272Z,59.14
2023-03-14T05:23:17.262Z,60.26
2023-03-14T05:24:17.270Z,58.49
2023-03-14T05:25:17.264Z,58.01
2023-03-14T05:26:17.238Z,60.26
2023-03-14T05:27:17.247Z,59.30
2023-03-14T05:28:17.228Z,58.81
2023-03-14T05:29:18.006Z,59.14
2023-03-14T05:30:17.206Z,59.62
2023-03-14T05:31:17.213Z,60.75
2023-03-14T05:32:17.192Z,59.46
2023-03-14T05:33:17.183Z,60.59
2023-03-14T05:34:17.615Z,55.43
2023-03-14T05:35:17.173Z,58.33
2023-03-14T05:36:18.024Z,59.94
2023-03-14T05:37:18.983Z,61.07
2023-03-14T05:38:17.159Z,59.14
2023-03-14T05:39:17.188Z,53.98
2023-03-14T05:40:17.137Z,57.52
2023-03-14T05:41:17.137Z,59.14
2023-03-14T05:42:17.145Z,60.10
2023-03-14T05:43:17.160Z,60.10
2023-03-14T05:44:17.109Z,57.52
2023-03-14T05:45:17.113Z,57.85
2023-03-14T05:46:17.239Z,58.17
2023-03-14T05:47:17.089Z,58.97
2023-03-14T05:48:17.074Z,59.78
2023-03-14T05:49:17.095Z,60.59
2023-03-14T05:50:17.083Z,63.33
2023-03-14T05:51:18.014Z,61.71
2023-03-14T05:52:17.056Z,56.88
2023-03-14T05:53:17.054Z,60.59
2023-03-14T05:54:17.029Z,59.78
2023-03-14T05:55:17.051Z,60.26
2023-03-14T05:56:17.016Z,60.10
2023-03-14T05:57:17.019Z,60.59
2023-03-14T05:58:17.012Z,57.69
2023-03-14T05:59:17.000Z,60.75
2023-03-14T06:00:17.000Z,60.75
2023-03-14T06:01:16.980Z,60.10
2023-03-14T06:02:17.004Z,60.91
2023-03-14T06:03:17.018Z,62.20
2023-03-14T06:04:16.951Z,58.97
2023-03-14T06:05:16.964Z,61.39
2023-03-14T06:06:16.940Z,62.04
2023-03-14T06:07:16.940Z,59.62
2023-03-14T06:08:18.076Z,59.46
2023-03-14T06:09:17.939Z,61.07
2023-03-14T06:10:16.909Z,59.78
2023-03-14T06:11:16.909Z,59.62
2023-03-14T06:12:16.881Z,61.39
2023-03-14T06:13:16.888Z,62.04
2023-03-14T06:14:16.876Z,63.81
2023-03-14T06:15:17.617Z,64.29
2023-03-14T06:16:16.935Z,66.23
2023-03-14T06:17:16.844Z,62.68
2023-03-14T06:18:16.848Z,61.07
2023-03-14T06:19:16.821Z,61.87
2023-03-14T06:22:23.675Z,65.58
2023-03-14T06:23:23.690Z,63.97
2023-03-14T06:24:23.658Z,65.10
2023-03-14T06:25:23.659Z,65.42
2023-03-14T06:26:23.655Z,64.61
2023-03-14T06:27:23.633Z,62.84
2023-03-14T06:28:25.890Z,63.00
2023-03-14T06:29:23.627Z,59.62
2023-03-14T06:30:23.610Z,62.04
2023-03-14T06:31:23.606Z,63.16
2023-03-14T06:32:23.679Z,63.81
2023-03-14T06:33:24.701Z,61.55
2023-03-14T06:34:24.682Z,62.20
2023-03-14T06:35:24.672Z,61.71
2023-03-14T06:36:24.662Z,65.42
2023-03-14T06:37:24.652Z,63.81
2023-03-14T06:38:24.661Z,65.26
2023-03-14T06:39:24.644Z,60.91
2023-03-14T06:40:24.634Z,61.71
2023-03-14T06:41:24.637Z,61.23
2023-03-14T06:42:25.698Z,62.84
2023-03-14T06:43:24.624Z,61.23
2023-03-14T06:44:24.628Z,63.00
2023-03-14T06:45:24.641Z,62.68
2023-03-14T06:46:24.649Z,63.00
2023-03-14T06:47:25.668Z,60.75
2023-03-14T06:48:24.583Z,61.39
2023-03-14T06:49:25.553Z,60.42
2023-03-14T06:50:24.562Z,62.52
2023-03-14T06:51:24.579Z,62.04
2023-03-14T06:52:24.577Z,61.23
2023-03-14T06:53:25.134Z,61.87
2023-03-14T06:54:24.562Z,61.55
2023-03-14T06:55:24.519Z,63.65
2023-03-14T06:56:24.512Z,61.71
2023-03-14T06:57:24.492Z,59.94
2023-03-14T06:58:24.494Z,64.45
2023-03-14T06:59:24.490Z,61.39
2023-03-14T07:00:24.502Z,64.45
2023-03-14T07:01:24.569Z,62.04
2023-03-14T07:02:35.987Z,61.23
2023-03-14T07:03:26.457Z,66.06
2023-03-14T07:04:24.444Z,64.78
2023-03-14T07:05:24.437Z,65.10
2023-03-14T07:06:24.465Z,63.97
2023-03-14T07:07:24.439Z,65.26
2023-03-14T07:08:24.427Z,60.91
2023-03-14T07:09:24.443Z,61.07
2023-03-14T07:10:24.401Z,61.07
2023-03-14T07:11:24.402Z,59.94
2023-03-14T07:12:24.405Z,60.10
2023-03-14T07:13:24.394Z,61.55
2023-03-14T07:14:24.376Z,59.14
2023-03-14T07:15:24.360Z,61.39
2023-03-14T07:16:24.350Z,59.46
2023-03-14T07:17:24.338Z,60.42
2023-03-14T07:18:24.437Z,61.87
2023-03-14T07:19:24.328Z,59.30
2023-03-14T07:20:24.311Z,59.14
2023-03-14T07:21:24.319Z,58.97
2023-03-14T07:22:24.295Z,62.84
2023-03-14T07:23:24.324Z,59.78
2023-03-14T07:24:24.300Z,60.26
2023-03-14T07:25:24.260Z,63.16
2023-03-14T07:26:24.263Z,62.20
2023-03-14T07:27:24.268Z,61.71
2023-03-14T07:28:24.276Z,61.23
2023-03-14T07:29:24.255Z,59.30
2023-03-14T07:30:24.276Z,61.87
2023-03-14T07:31:24.292Z,65.74
2023-03-14T07:32:25.125Z,60.26
2023-03-14T07:33:24.219Z,61.39
2023-03-14T07:34:24.201Z,59.46
2023-03-14T07:35:24.204Z,59.94
2023-03-14T07:36:24.176Z,62.04
2023-03-14T07:37:24.186Z,62.84
2023-03-14T07:38:24.233Z,63.49
2023-03-14T07:39:24.161Z,60.26
2023-03-14T07:40:24.157Z,59.14
2023-03-14T07:41:24.180Z,59.30
2023-03-14T07:42:25.033Z,59.94
2023-03-14T07:43:25.098Z,56.72
2023-03-14T07:44:24.126Z,60.75
2023-03-14T07:45:25.187Z,61.07
2023-03-14T07:46:25.142Z,60.26
2023-03-14T07:47:25.070Z,60.91
2023-03-14T07:48:25.131Z,59.94
2023-03-14T07:49:24.085Z,59.62
2023-03-14T07:50:24.073Z,59.30
2023-03-14T07:51:24.133Z,61.07
2023-03-14T07:52:24.061Z,59.62
2023-03-14T07:53:24.070Z,59.62
2023-03-14T07:54:24.067Z,61.71
2023-03-14T07:55:24.021Z,60.59
2023-03-14T07:56:24.026Z,61.55
2023-03-14T07:57:24.035Z,60.91
2023-03-14T07:58:24.013Z,58.33
2023-03-14T07:59:24.072Z,59.14
2023-03-14T08:00:24.592Z,61.87
2023-03-14T08:01:23.976Z,60.59
2023-03-14T08:02:24.103Z,59.46
2023-03-14T08:03:23.985Z,58.17
2023-03-14T08:04:23.979Z,58.97
2023-03-14T08:05:24.528Z,59.30
2023-03-14T08:06:23.942Z,62.52
2023-03-14T08:07:23.954Z,61.71
2023-03-14T08:08:23.921Z,59.94
2023-03-14T08:09:23.924Z,59.78
2023-03-14T08:10:23.955Z,59.30
2023-03-14T08:11:23.887Z,59.94
2023-03-14T08:12:23.949Z,59.78
2023-03-14T08:13:23.954Z,58.33
2023-03-14T08:14:23.873Z,59.14
2023-03-14T08:15:23.865Z,57.52
2023-03-14T08:16:23.950Z,60.10
2023-03-14T08:17:24.900Z,61.71
2023-03-14T08:18:24.532Z,59.46
2023-03-14T08:19:23.842Z,61.55
2023-03-14T08:20:23.847Z,62.84
2023-03-14T08:21:23.877Z,60.10
2023-03-14T08:22:23.810Z,58.17
2023-03-14T08:23:23.811Z,61.55
2023-03-14T08:24:23.814Z,60.91
2023-03-14T08:25:23.863Z,60.26
2023-03-14T08:26:23.802Z,61.87
2023-03-14T08:27:23.807Z,60.26
2023-03-14T08:28:23.787Z,60.42
2023-03-14T08:29:23.761Z,61.07
2023-03-14T08:30:23.812Z,62.68
2023-03-14T08:31:24.908Z,61.07
2023-03-14T08:32:23.813Z,60.75
2023-03-14T08:33:23.753Z,60.26
2023-03-14T08:34:23.793Z,58.65
2023-03-14T08:35:23.723Z,58.01
2023-03-14T08:36:24.289Z,62.52
2023-03-14T08:37:27.011Z,61.87
2023-03-14T08:38:24.705Z,60.75
2023-03-14T08:39:23.808Z,60.91
2023-03-14T08:40:23.728Z,60.91
2023-03-14T08:41:23.656Z,62.20
2023-03-14T08:42:23.664Z,59.78
2023-03-14T08:43:23.621Z,58.65
2023-03-14T08:44:23.687Z,60.10
2023-03-14T08:45:23.682Z,60.59
2023-03-14T08:46:24.631Z,60.59
2023-03-14T08:47:24.175Z,59.94
2023-03-14T08:48:24.604Z,61.39
2023-03-14T08:49:23.680Z,55.91
2023-03-14T08:50:23.695Z,57.20
2023-03-14T08:51:23.578Z,61.55
2023-03-14T08:52:23.574Z,59.62
2023-03-14T08:53:23.592Z,60.10
2023-03-14T08:54:23.567Z,62.20
2023-03-14T08:55:23.646Z,62.84
2023-03-14T08:56:25.945Z,60.91
2023-03-14T08:57:24.551Z,60.10
2023-03-14T08:58:23.528Z,60.59
2023-03-14T08:59:23.565Z,62.52
2023-03-14T09:00:23.635Z,63.16
2023-03-14T09:01:23.530Z,60.26
2023-03-14T09:02:23.481Z,63.81
2023-03-14T09:03:23.558Z,61.71
2023-03-14T09:04:23.527Z,59.62
2023-03-14T09:05:23.455Z,61.55
2023-03-14T09:06:23.482Z,59.62
2023-03-14T09:07:23.490Z,61.23
2023-03-14T09:08:23.476Z,61.07
2023-03-14T09:09:23.519Z,63.33
2023-03-14T09:10:23.539Z,60.42
2023-03-14T09:11:23.536Z,62.68
2023-03-14T09:12:23.401Z,61.07
2023-03-14T09:13:23.410Z,60.10
2023-03-14T09:14:23.387Z,58.65
2023-03-14T09:15:23.395Z,59.62
2023-03-14T09:16:23.421Z,60.75
2023-03-14T09:17:23.402Z,62.20
2023-03-14T09:18:23.359Z,61.39
2023-03-14T09:19:23.361Z,59.62
2023-03-14T09:20:23.362Z,63.00
2023-03-14T09:21:23.503Z,62.68
2023-03-14T09:22:24.502Z,57.52
2023-03-14T09:23:23.371Z,60.91
2023-03-14T09:24:24.109Z,62.04
2023-03-14T09:25:23.298Z,62.84
2023-03-14T09:26:23.297Z,64.78
2023-03-14T09:27:23.333Z,66.39
2023-03-14T09:28:23.296Z,65.10
2023-03-14T09:29:23.338Z,64.94
2023-03-14T09:30:23.306Z,64.45
2023-03-14T09:31:23.296Z,64.13
2023-03-14T09:32:23.397Z,63.65
2023-03-14T09:33:23.263Z,60.91
2023-03-14T09:34:23.258Z,62.68
2023-03-14T09:35:23.260Z,61.87
2023-03-14T09:36:23.239Z,63.81
2023-03-14T09:37:23.222Z,61.55
2023-03-14T09:38:23.213Z,60.59
2023-03-14T09:39:23.221Z,60.59
2023-03-14T09:40:23.187Z,61.07
2023-03-14T09:41:23.228Z,58.65
2023-03-14T09:42:23.193Z,59.94
2023-03-14T09:43:23.171Z,61.07
2023-03-14T09:44:23.141Z,60.75
2023-03-14T09:45:23.774Z,60.42
2023-03-14T09:46:24.185Z,58.65
2023-03-14T09:47:23.124Z,60.10
2023-03-14T09:48:23.126Z,63.00
2023-03-14T09:49:23.129Z,61.23
2023-03-14T09:50:23.119Z,60.26
2023-03-14T09:51:24.744Z,60.91
2023-03-14T09:52:24.110Z,60.75
2023-03-14T09:53:23.085Z,59.14
2023-03-14T09:54:23.598Z,60.91
2023-03-14T09:55:23.064Z,61.87
2023-03-14T09:56:23.041Z,59.46
2023-03-14T09:57:23.060Z,61.87
2023-03-14T09:58:24.107Z,62.36
2023-03-14T09:59:23.074Z,64.29
2023-03-14T10:00:23.117Z,62.36
2023-03-14T10:01:24.065Z,59.62
2023-03-14T10:02:23.006Z,59.94
2023-03-14T10:03:23.008Z,61.39
2023-03-14T10:04:23.001Z,61.87
2023-03-14T10:05:22.995Z,60.91
2023-03-14T10:06:23.563Z,60.75
2023-03-14T10:07:23.020Z,59.62
2023-03-14T10:08:23.691Z,59.14
2023-03-14T10:09:23.608Z,59.94
2023-03-14T10:10:22.980Z,62.52
2023-03-14T10:11:22.945Z,59.62
2023-03-14T10:12:23.021Z,61.07
2023-03-14T10:13:22.903Z,60.42
2023-03-14T10:14:22.898Z,61.55
2023-03-14T10:15:22.884Z,61.39
2023-03-14T10:16:22.909Z,59.78
2023-03-14T10:17:23.697Z,63.97
2023-03-14T10:18:22.898Z,60.75
2023-03-14T10:19:22.860Z,60.26
2023-03-14T10:20:22.872Z,63.81
2023-03-14T10:21:22.872Z,60.42
2023-03-14T10:22:22.855Z,60.10
2023-03-14T10:23:22.884Z,60.10
2023-03-14T10:24:22.839Z,63.00
2023-03-14T10:25:22.814Z,61.39
2023-03-14T10:26:23.209Z,62.20
2023-03-14T10:27:22.821Z,63.16
2023-03-14T10:28:22.816Z,61.87
2023-03-14T10:29:24.669Z,63.81
2023-03-14T10:30:22.880Z,64.61
2023-03-14T10:31:23.609Z,59.62
2023-03-14T10:32:22.849Z,59.62
2023-03-14T10:33:22.761Z,61.55
2023-03-14T10:34:22.769Z,59.78
2023-03-14T10:35:22.741Z,62.04
2023-03-14T10:36:22.847Z,63.00
2023-03-14T10:37:22.711Z,62.04
2023-03-14T10:38:22.749Z,59.14
2023-03-14T10:39:22.684Z,62.20
2023-03-14T10:40:23.752Z,62.36
2023-03-14T10:41:22.708Z,59.46
2023-03-14T10:42:22.766Z,58.01
2023-03-14T10:43:22.682Z,61.07
2023-03-14T10:44:22.654Z,58.33
2023-03-14T10:45:22.662Z,60.26
2023-03-14T10:46:22.706Z,59.62
2023-03-14T10:47:22.645Z,62.20
2023-03-14T10:48:22.678Z,59.62
2023-03-14T10:49:22.652Z,60.42
2023-03-14T10:50:22.650Z,60.91
2023-03-14T10:51:22.621Z,58.49
2023-03-14T10:52:26.376Z,59.62
2023-03-14T10:53:26.520Z,59.62
2023-03-14T10:54:23.572Z,60.91
2023-03-14T10:55:22.608Z,58.17
2023-03-14T10:56:22.609Z,61.87
2023-03-14T10:57:22.572Z,61.71
2023-03-14T10:58:22.588Z,60.75
2023-03-14T10:59:22.560Z,59.62
2023-03-14T11:00:22.564Z,63.33
2023-03-14T11:01:22.547Z,59.14
2023-03-14T11:02:23.214Z,60.10
2023-03-14T11:03:22.508Z,64.94
2023-03-14T11:04:23.292Z,61.07
2023-03-14T11:05:22.506Z,63.00
2023-03-14T11:06:22.524Z,61.39
2023-03-14T11:07:22.523Z,61.71
2023-03-14T11:08:22.466Z,61.55
2023-03-14T11:09:23.133Z,60.91
2023-03-14T11:10:22.513Z,60.75
2023-03-14T11:11:22.481Z,60.75
2023-03-14T11:12:22.445Z,63.65
2023-03-14T11:13:23.126Z,62.68
2023-03-14T11:14:23.997Z,63.16
2023-03-14T11:15:22.446Z,64.61
2023-03-14T11:16:23.781Z,60.75
2023-03-14T11:17:22.416Z,63.49
2023-03-14T11:18:22.422Z,64.45
2023-03-14T11:19:22.504Z,66.39
2023-03-14T11:20:22.370Z,63.49
2023-03-14T11:21:22.362Z,62.20
2023-03-14T11:22:22.348Z,61.23
2023-03-14T11:23:22.759Z,62.68
2023-03-14T11:24:22.461Z,62.52
2023-03-14T11:25:22.397Z,63.49
2023-03-14T11:26:22.316Z,64.29
2023-03-14T11:27:22.317Z,66.39
2023-03-14T11:28:23.110Z,65.42
2023-03-14T11:29:22.289Z,63.97
2023-03-14T11:30:22.298Z,62.68
2023-03-14T11:31:22.333Z,61.55
2023-03-14T11:32:27.174Z,63.16
2023-03-14T11:33:23.135Z,59.78
2023-03-14T11:34:25.419Z,60.10
2023-03-14T11:35:23.281Z,61.87
2023-03-14T11:36:24.091Z,62.20
2023-03-14T11:37:22.273Z,63.97
2023-03-14T11:38:22.249Z,61.39
2023-03-14T11:39:22.220Z,61.71
2023-03-14T11:40:22.221Z,61.23
2023-03-14T11:41:22.211Z,60.75
2023-03-14T11:42:23.233Z,63.49
2023-03-14T11:43:23.130Z,60.59
2023-03-14T11:44:23.109Z,60.59
2023-03-14T11:45:22.297Z,60.59
2023-03-14T11:46:22.300Z,59.78
2023-03-14T11:47:22.153Z,58.49
2023-03-14T11:48:22.161Z,63.65
2023-03-14T11:49:22.188Z,59.30
2023-03-14T11:50:22.174Z,61.23
2023-03-14T11:51:22.237Z,61.87
2023-03-14T11:52:22.540Z,63.65
2023-03-14T11:53:22.645Z,59.94
2023-03-14T11:54:23.874Z,59.62
2023-03-14T11:55:22.108Z,59.14
2023-03-14T11:56:22.580Z,64.45
2023-03-14T11:57:22.116Z,61.55
2023-03-14T11:58:22.284Z,61.55
2023-03-14T11:59:24.152Z,62.36
2023-03-14T12:00:23.612Z,62.20
2023-03-14T12:01:22.137Z,62.84
2023-03-14T12:02:22.118Z,62.20
2023-03-14T12:03:22.028Z,63.16
2023-03-14T12:04:24.277Z,63.33
2023-03-14T12:05:22.033Z,60.91
2023-03-14T12:06:22.839Z,61.71
2023-03-14T12:07:22.020Z,58.33
2023-03-14T12:08:22.016Z,62.68
2023-03-14T12:09:21.983Z,58.33
2023-03-14T12:10:21.970Z,63.81
2023-03-14T12:11:22.006Z,66.71
2023-03-14T12:12:21.948Z,62.36
2023-03-14T12:13:22.265Z,60.91
2023-03-14T12:14:22.757Z,63.16
2023-03-14T12:15:21.933Z,64.13
2023-03-14T12:16:21.981Z,63.97
2023-03-14T12:17:21.915Z,64.29
2023-03-14T12:18:21.904Z,65.42
2023-03-14T12:19:22.915Z,67.84
2023-03-14T12:20:22.617Z,67.68
2023-03-14T12:21:21.960Z,66.87
2023-03-14T12:22:21.869Z,68.16
2023-03-14T12:23:21.959Z,64.61
2023-03-14T12:24:21.842Z,61.71
2023-03-14T12:25:21.925Z,66.87
2023-03-14T12:26:21.845Z,61.07
2023-03-14T12:27:21.929Z,61.23
2023-03-14T12:28:21.874Z,62.20
2023-03-14T12:29:22.779Z,60.75
2023-03-14T12:30:21.889Z,66.39
2023-03-14T12:31:21.874Z,65.26
2023-03-14T12:32:21.816Z,64.45
2023-03-14T12:33:21.837Z,60.91
2023-03-14T12:34:22.257Z,61.23
2023-03-14T12:35:22.760Z,61.07
2023-03-14T12:36:21.778Z,66.23
2023-03-14T12:37:21.762Z,63.16
2023-03-14T12:38:21.726Z,60.91
2023-03-14T12:39:22.666Z,63.33
2023-03-14T12:40:21.753Z,63.81
2023-03-14T12:41:21.726Z,68.00
2023-03-14T12:42:21.934Z,61.55
2023-03-14T12:43:22.605Z,64.45
2023-03-14T12:44:21.745Z,66.06
2023-03-14T12:45:22.663Z,63.65
2023-03-14T12:46:21.694Z,65.42
2023-03-14T12:47:22.646Z,65.58
2023-03-14T12:48:21.764Z,65.90
2023-03-14T12:49:22.243Z,62.52
2023-03-14T12:50:21.710Z,63.81
2023-03-14T12:51:21.644Z,66.71
2023-03-14T12:52:21.637Z,66.06
2023-03-14T12:53:21.622Z,63.16
2023-03-14T12:54:21.610Z,63.97
2023-03-14T12:55:21.613Z,62.84
2023-03-14T12:56:22.402Z,66.55